createdAt,value
2024-04-30T00:01:34.863Z,98288.78
2024-04-30T00:04:12.360Z,98361.34
2024-04-30T00:06:42.948Z,98321.72
2024-04-30T00:09:09.872Z,98304.56
2024-04-30T00:11:40.911Z,98328.63
2024-04-30T00:14:18.185Z,98354.88
2024-04-30T00:16:45.896Z,98286.09
2024-04-30T00:19:12.689Z,98331.28
2024-04-30T00:21:40.183Z,98302.31
2024-04-30T00:24:07.396Z,98360.22
2024-04-30T00:26:34.358Z,98308.81
2024-04-30T00:29:01.341Z,98348.66
2024-04-30T00:31:28.439Z,98199.19
2024-04-30T00:33:55.284Z,98182.81
2024-04-30T00:36:24.922Z,98295.84
2024-04-30T00:38:51.758Z,98258.97
2024-04-30T00:41:18.494Z,98260.19
2024-04-30T00:43:45.334Z,98138.66
2024-04-30T00:46:15.281Z,98325.09
2024-04-30T00:48:44.398Z,98339.00
2024-04-30T00:51:12.459Z,98332.06
2024-04-30T00:53:43.476Z,98310.78
2024-04-30T00:56:10.884Z,98268.72
2024-04-30T00:58:37.797Z,98271.47
2024-04-30T01:01:05.071Z,98329.91
2024-04-30T01:04:22.058Z,98318.97
2024-04-30T01:06:48.863Z,98255.22
2024-04-30T01:09:15.733Z,98279.00
2024-04-30T01:11:43.883Z,98314.72
2024-04-30T01:14:10.692Z,98192.75
2024-04-30T01:16:37.544Z,98188.63
2024-04-30T01:19:04.316Z,98198.69
2024-04-30T01:21:31.077Z,98215.03
2024-04-30T01:23:57.983Z,98193.47
2024-04-30T01:26:40.182Z,98310.84
2024-04-30T01:29:07.046Z,98331.72
2024-04-30T01:31:35.823Z,98246.03
2024-04-30T01:34:02.605Z,98324.19
2024-04-30T01:36:29.405Z,98319.41
2024-04-30T01:38:56.082Z,98116.88
2024-04-30T01:41:23.018Z,98298.63
2024-04-30T01:43:51.764Z,98200.59
2024-04-30T01:46:18.617Z,98262.22
2024-04-30T01:48:45.403Z,98299.47
2024-04-30T01:51:12.190Z,98211.72
2024-04-30T01:53:45.192Z,98256.91
2024-04-30T01:56:12.029Z,98207.59
2024-04-30T01:58:38.800Z,98277.25
2024-04-30T02:01:05.658Z,98317.63
2024-04-30T02:03:32.573Z,98267.09
2024-04-30T02:06:06.757Z,98302.47
2024-04-30T02:08:33.523Z,98285.41
2024-04-30T02:11:00.490Z,98276.44
2024-04-30T02:13:27.298Z,98235.50
2024-04-30T02:15:54.341Z,98235.06
2024-04-30T02:18:44.958Z,98299.66
2024-04-30T02:21:11.778Z,98255.13
2024-04-30T02:23:38.436Z,98201.09
2024-04-30T02:26:05.668Z,98272.94
2024-04-30T02:28:32.549Z,98251.44
2024-04-30T02:31:17.996Z,98200.28
2024-04-30T02:34:04.590Z,98250.34
2024-04-30T02:36:31.275Z,98277.50
2024-04-30T02:38:58.074Z,98249.25
2024-04-30T02:41:24.765Z,98236.63
2024-04-30T02:43:51.559Z,98198.22
2024-04-30T02:46:18.794Z,98138.91
2024-04-30T02:48:45.548Z,98243.84
2024-04-30T02:51:12.393Z,98195.88
2024-04-30T02:53:39.142Z,98091.94
2024-04-30T02:56:06.188Z,98170.56
2024-04-30T02:58:33.097Z,98179.25
2024-04-30T03:01:13.409Z,98235.34
2024-04-30T03:03:40.922Z,98220.78
2024-04-30T03:06:08.092Z,98170.47
2024-04-30T03:08:37.909Z,98093.84
2024-04-30T03:11:05.586Z,98251.91
2024-04-30T03:13:32.478Z,98236.19
2024-04-30T03:15:59.383Z,98208.88
2024-04-30T03:18:26.359Z,98225.97
2024-04-30T03:20:53.320Z,98165.00
2024-04-30T03:23:20.220Z,98184.91
2024-04-30T03:25:46.934Z,98151.06
2024-04-30T03:28:13.835Z,97967.13
2024-04-30T03:30:41.021Z,98104.00
2024-04-30T03:33:08.184Z,97959.72
2024-04-30T03:35:39.627Z,98097.72
2024-04-30T03:38:06.583Z,98082.56
2024-04-30T03:40:34.739Z,98158.81
2024-04-30T03:43:01.687Z,98118.16
2024-04-30T03:45:28.627Z,98111.03
2024-04-30T03:47:55.562Z,97735.44
2024-04-30T03:50:22.600Z,98091.88
2024-04-30T03:52:49.598Z,98183.13
2024-04-30T03:55:16.660Z,97833.88
2024-04-30T03:57:47.148Z,98155.78
2024-04-30T04:00:17.350Z,98034.56
2024-04-30T04:02:52.830Z,98035.63
2024-04-30T04:05:35.414Z,98179.75
2024-04-30T04:08:02.612Z,98120.91
2024-04-30T04:10:30.630Z,98009.66
2024-04-30T04:13:19.424Z,98134.97
2024-04-30T04:15:49.283Z,98029.38
2024-04-30T04:18:31.666Z,98240.50
2024-04-30T04:20:58.614Z,98119.34
2024-04-30T04:23:29.567Z,98271.00
2024-04-30T04:25:59.982Z,98286.09
2024-04-30T04:28:29.730Z,97995.22
2024-04-30T04:30:56.518Z,98090.56
2024-04-30T04:33:34.585Z,97980.34
2024-04-30T04:36:04.775Z,98093.47
2024-04-30T04:38:42.928Z,98252.13
2024-04-30T04:41:13.009Z,97893.59
2024-04-30T04:43:45.602Z,98080.78
2024-04-30T04:46:12.689Z,98075.72
2024-04-30T04:48:44.761Z,97987.06
2024-04-30T04:51:11.948Z,98038.75
2024-04-30T04:53:43.704Z,98020.84
2024-04-30T04:56:25.192Z,97886.03
2024-04-30T04:58:55.429Z,98005.13
2024-04-30T05:01:52.116Z,98064.00
2024-04-30T05:04:21.866Z,97998.19
2024-04-30T05:06:55.516Z,98153.94
2024-04-30T05:09:28.751Z,97901.88
2024-04-30T05:11:56.113Z,97856.81
2024-04-30T05:14:55.924Z,98254.56
2024-04-30T05:17:27.060Z,98169.59
2024-04-30T05:20:06.359Z,97806.00
2024-04-30T05:22:47.489Z,98234.72
2024-04-30T05:25:20.790Z,98089.88
2024-04-30T05:28:15.474Z,98220.06
2024-04-30T05:30:42.510Z,97754.38
2024-04-30T05:33:18.102Z,98222.75
2024-04-30T05:35:45.118Z,98221.34
2024-04-30T05:38:14.476Z,97968.66
2024-04-30T05:41:38.317Z,98213.38
2024-04-30T05:44:12.717Z,98081.34
2024-04-30T05:46:55.554Z,98025.25
2024-04-30T05:49:22.694Z,97852.19
2024-04-30T05:51:55.047Z,97723.03
2024-04-30T05:54:27.625Z,97979.63
2024-04-30T05:56:58.064Z,97829.06
2024-04-30T06:00:18.507Z,98176.69
2024-04-30T06:02:45.500Z,98180.28
2024-04-30T06:05:19.669Z,97797.63
2024-04-30T06:08:45.636Z,98167.56
2024-04-30T06:11:12.612Z,98072.91
2024-04-30T06:13:41.561Z,97790.47
2024-04-30T06:16:08.461Z,97943.44
2024-04-30T06:18:36.245Z,97956.78
2024-04-30T06:21:31.766Z,98158.69
2024-04-30T06:24:05.097Z,97788.47
2024-04-30T06:26:58.203Z,98159.19
2024-04-30T06:29:25.053Z,97965.66
2024-04-30T06:31:52.205Z,97977.03
2024-04-30T06:34:47.340Z,98135.38
2024-04-30T06:37:28.970Z,98005.22
2024-04-30T06:40:06.525Z,97931.66
2024-04-30T06:42:35.002Z,97840.41
2024-04-30T06:45:02.188Z,97867.88
2024-04-30T06:47:33.319Z,97741.47
2024-04-30T06:50:04.850Z,98122.56
2024-04-30T06:52:49.225Z,97913.59
2024-04-30T06:55:27.666Z,97913.59
2024-04-30T06:57:55.129Z,97906.47
2024-04-30T07:00:22.000Z,97818.63
2024-04-30T07:02:48.953Z,97882.16
2024-04-30T07:05:16.187Z,97993.72
2024-04-30T07:07:45.706Z,97872.00
2024-04-30T07:10:13.719Z,97990.19
2024-04-30T07:12:55.297Z,98095.22
2024-04-30T07:15:22.173Z,98096.81
2024-04-30T07:17:49.288Z,98102.94
2024-04-30T07:20:26.936Z,98100.47
2024-04-30T07:22:53.692Z,98069.97
2024-04-30T07:25:20.506Z,98077.88
2024-04-30T07:27:52.571Z,98090.75
2024-04-30T07:30:19.516Z,97949.63
2024-04-30T07:32:46.568Z,97954.19
2024-04-30T07:35:13.612Z,97985.03
2024-04-30T07:37:44.796Z,98118.13
2024-04-30T07:40:37.130Z,98116.53
2024-04-30T07:43:05.329Z,98088.75
2024-04-30T07:45:32.263Z,98085.53
2024-04-30T07:47:59.137Z,97917.19
2024-04-30T07:50:28.150Z,98129.31
2024-04-30T07:52:55.098Z,98129.75
2024-04-30T07:55:24.363Z,97805.47
2024-04-30T07:58:07.721Z,98048.63
2024-04-30T08:00:41.236Z,97946.25
2024-04-30T08:03:08.310Z,98028.22
2024-04-30T08:05:42.961Z,98009.28
2024-04-30T08:08:31.387Z,98115.16
2024-04-30T08:11:01.452Z,98030.25
2024-04-30T08:13:28.477Z,97767.19
2024-04-30T08:15:55.718Z,98125.41
2024-04-30T08:18:25.461Z,97792.53
2024-04-30T08:20:52.672Z,97767.78
2024-04-30T08:23:25.420Z,97725.53
2024-04-30T08:25:55.156Z,97774.72
2024-04-30T08:28:22.016Z,97887.63
2024-04-30T08:30:58.004Z,98003.03
2024-04-30T08:33:27.512Z,97844.13
2024-04-30T08:36:06.978Z,98090.13
2024-04-30T08:38:34.166Z,97867.34
2024-04-30T08:41:01.081Z,97947.28
2024-04-30T08:44:15.206Z,98075.69
2024-04-30T08:46:45.222Z,97965.66
2024-04-30T08:49:38.041Z,98064.22
2024-04-30T08:52:10.325Z,98080.09
2024-04-30T08:54:39.870Z,97930.66
2024-04-30T08:57:38.446Z,98070.63
2024-04-30T09:00:06.229Z,97880.00
2024-04-30T09:02:38.198Z,97890.22
2024-04-30T09:05:05.730Z,98086.88
2024-04-30T09:07:34.859Z,97870.13
2024-04-30T09:10:05.416Z,97924.13
2024-04-30T09:12:32.876Z,97979.63
2024-04-30T09:15:01.953Z,97923.50
2024-04-30T09:17:30.733Z,97835.47
2024-04-30T09:20:12.581Z,98054.28
2024-04-30T09:22:57.960Z,98021.53
2024-04-30T09:25:36.380Z,97962.88
2024-04-30T09:28:21.992Z,97933.69
2024-04-30T09:31:00.229Z,97978.41
2024-04-30T09:33:29.077Z,97698.75
2024-04-30T09:36:27.756Z,98037.06
2024-04-30T09:38:54.866Z,97844.81
2024-04-30T09:41:28.393Z,97988.22
2024-04-30T09:44:00.498Z,97722.94
2024-04-30T09:46:28.232Z,97711.19
2024-04-30T09:48:58.077Z,97914.75
2024-04-30T09:51:30.019Z,97775.84
2024-04-30T09:53:58.907Z,97931.31
2024-04-30T09:56:40.496Z,97829.56
2024-04-30T09:59:07.543Z,97820.53
2024-04-30T10:01:35.631Z,97925.00
2024-04-30T10:04:12.894Z,97668.44
2024-04-30T10:06:42.804Z,97641.56
2024-04-30T10:09:12.862Z,97831.56
2024-04-30T10:11:47.563Z,97668.31
2024-04-30T10:14:32.491Z,97836.00
2024-04-30T10:17:01.069Z,97701.47
2024-04-30T10:19:31.902Z,97801.38
2024-04-30T10:22:22.029Z,97989.22
2024-04-30T10:24:49.905Z,97939.44
2024-04-30T10:27:24.180Z,97818.25
2024-04-30T10:29:51.490Z,97776.44
2024-04-30T10:32:21.815Z,97647.00
2024-04-30T10:35:07.302Z,97814.88
2024-04-30T10:37:37.451Z,97719.75
2024-04-30T10:40:30.146Z,97955.28
2024-04-30T10:42:59.040Z,97842.81
2024-04-30T10:45:26.001Z,97794.88
2024-04-30T10:47:54.845Z,97617.09
2024-04-30T10:50:21.997Z,97581.56
2024-04-30T10:52:54.692Z,97896.13
2024-04-30T10:55:22.415Z,97583.81
2024-04-30T10:57:52.558Z,97596.94
2024-04-30T11:00:23.102Z,97722.00
2024-04-30T11:02:57.190Z,97933.63
2024-04-30T11:05:28.586Z,97832.38
2024-04-30T11:07:59.610Z,97726.53
2024-04-30T11:10:31.036Z,97805.22
2024-04-30T11:13:16.831Z,97778.31
2024-04-30T11:15:43.743Z,97573.25
2024-04-30T11:18:10.760Z,97636.47
2024-04-30T11:20:51.047Z,97888.81
2024-04-30T11:23:17.884Z,97790.28
2024-04-30T11:25:44.848Z,97571.16
2024-04-30T11:28:19.179Z,97752.06
2024-04-30T11:30:53.436Z,97799.44
2024-04-30T11:33:20.320Z,97766.41
2024-04-30T11:35:49.886Z,97778.06
2024-04-30T11:38:23.331Z,97815.16
2024-04-30T11:40:55.206Z,97810.72
2024-04-30T11:43:25.372Z,97645.75
2024-04-30T11:45:53.690Z,97468.31
2024-04-30T11:48:20.866Z,97511.81
2024-04-30T11:50:47.861Z,97811.84
2024-04-30T11:53:29.726Z,97721.47
2024-04-30T11:56:05.380Z,97483.84
2024-04-30T11:58:33.088Z,97470.22
2024-04-30T12:01:00.172Z,97802.91
2024-04-30T12:03:29.608Z,97646.59
2024-04-30T12:06:19.486Z,97818.06
2024-04-30T12:08:48.749Z,97717.19
2024-04-30T12:11:15.780Z,97493.53
2024-04-30T12:13:42.774Z,97573.25
2024-04-30T12:16:11.965Z,97719.22
2024-04-30T12:18:39.300Z,97475.13
2024-04-30T12:21:06.194Z,97610.03
2024-04-30T12:23:43.626Z,97698.63
2024-04-30T12:26:11.503Z,97733.31
2024-04-30T12:28:38.452Z,97801.91
2024-04-30T12:31:10.062Z,97812.72
2024-04-30T12:33:40.685Z,97670.28
2024-04-30T12:36:07.776Z,97481.69
2024-04-30T12:38:34.658Z,97631.09
2024-04-30T12:41:04.871Z,97414.41
2024-04-30T12:43:38.526Z,97390.72
2024-04-30T12:46:06.250Z,97470.41
2024-04-30T12:48:33.306Z,97450.47
2024-04-30T12:51:00.354Z,97601.47
2024-04-30T12:53:27.449Z,97694.25
2024-04-30T12:55:54.388Z,97646.72
2024-04-30T12:58:28.268Z,97580.28
2024-04-30T13:00:59.594Z,97599.06
2024-04-30T13:03:26.797Z,97436.34
2024-04-30T13:05:56.953Z,97410.41
2024-04-30T13:08:32.040Z,97734.53
2024-04-30T13:11:04.661Z,97574.94
2024-04-30T13:13:36.360Z,97395.31
2024-04-30T13:16:16.844Z,97441.75
2024-04-30T13:18:59.712Z,97380.00
2024-04-30T13:21:32.141Z,97629.50
2024-04-30T13:24:04.535Z,97763.94
2024-04-30T13:26:31.598Z,97447.91
2024-04-30T13:29:11.666Z,97437.66
2024-04-30T13:31:44.213Z,97523.13
2024-04-30T13:34:14.434Z,97353.88
2024-04-30T13:36:47.861Z,97532.09
2024-04-30T13:39:18.019Z,97367.81
2024-04-30T13:41:44.977Z,97567.66
2024-04-30T13:44:15.137Z,97369.63
2024-04-30T13:46:42.215Z,97399.09
2024-04-30T13:49:09.149Z,97545.09
2024-04-30T13:51:49.887Z,97738.41
2024-04-30T13:54:16.827Z,97373.19
2024-04-30T13:56:47.988Z,97411.56
2024-04-30T13:59:21.975Z,97402.28
2024-04-30T14:01:49.349Z,97447.28
2024-04-30T14:04:16.935Z,97400.69
2024-04-30T14:06:44.294Z,97611.00
2024-04-30T14:09:15.401Z,97567.03
2024-04-30T14:11:44.617Z,97564.59
2024-04-30T14:14:15.812Z,97736.16
2024-04-30T14:17:03.885Z,97590.00
2024-04-30T14:20:01.786Z,97715.69
2024-04-30T14:22:54.020Z,97717.38
2024-04-30T14:26:06.523Z,97695.56
2024-04-30T14:28:44.711Z,97690.41
2024-04-30T14:31:13.819Z,97702.28
2024-04-30T14:34:11.003Z,97706.06
2024-04-30T14:36:40.214Z,97464.84
2024-04-30T14:39:11.265Z,97307.34
2024-04-30T14:41:43.361Z,97549.09
2024-04-30T14:44:12.435Z,97362.50
2024-04-30T14:46:41.516Z,97392.81
2024-04-30T14:49:08.536Z,97559.63
2024-04-30T14:51:38.401Z,97362.31
2024-04-30T14:54:06.319Z,97515.28
2024-04-30T14:56:39.711Z,97486.31
2024-04-30T14:59:06.980Z,97709.94
2024-04-30T15:01:33.981Z,97675.94
2024-04-30T15:04:01.312Z,97626.94
2024-04-30T15:06:31.056Z,97693.00
2024-04-30T15:08:57.886Z,97674.16
2024-04-30T15:11:25.531Z,97674.19
2024-04-30T15:13:53.291Z,97674.50
2024-04-30T15:16:20.984Z,97659.66
2024-04-30T15:18:49.959Z,97672.13
2024-04-30T15:21:16.694Z,97674.94
2024-04-30T15:23:44.741Z,97636.91
2024-04-30T15:26:14.990Z,97669.34
2024-04-30T15:28:43.344Z,97490.78
2024-04-30T15:31:21.510Z,97644.50
2024-04-30T15:33:48.784Z,97660.63
2024-04-30T15:36:16.347Z,97549.56
2024-04-30T15:38:46.704Z,97654.69
2024-04-30T15:41:23.885Z,97647.78
2024-04-30T15:43:52.178Z,97597.53
2024-04-30T15:46:19.548Z,97642.56
2024-04-30T15:48:46.585Z,97519.44
2024-04-30T15:51:14.427Z,97588.22
2024-04-30T15:53:42.185Z,97421.19
2024-04-30T15:56:17.443Z,97598.88
2024-04-30T15:58:46.760Z,97631.75
2024-04-30T16:01:14.292Z,97632.59
2024-04-30T16:03:41.435Z,97621.78
2024-04-30T16:06:08.995Z,97627.63
2024-04-30T16:08:39.030Z,97624.22
2024-04-30T16:11:10.525Z,97474.06
2024-04-30T16:13:40.200Z,97509.28
2024-04-30T16:16:15.967Z,97628.31
2024-04-30T16:18:46.310Z,97606.69
2024-04-30T16:21:13.802Z,97613.81
2024-04-30T16:23:40.648Z,97606.94
2024-04-30T16:26:08.868Z,97620.69
2024-04-30T16:28:36.442Z,97569.88
2024-04-30T16:31:03.991Z,97621.34
2024-04-30T16:33:31.322Z,97505.28
2024-04-30T16:35:59.779Z,97622.53
2024-04-30T16:38:26.554Z,97617.59
2024-04-30T16:40:53.435Z,97623.69
2024-04-30T16:43:22.987Z,97571.31
2024-04-30T16:45:50.738Z,97540.28
2024-04-30T16:48:18.939Z,97515.03
2024-04-30T16:50:45.861Z,97505.75
2024-04-30T16:53:12.801Z,97429.63
2024-04-30T16:55:39.554Z,97551.81
2024-04-30T17:00:37.290Z,97217.09
2024-04-30T17:03:05.160Z,97486.88
2024-04-30T17:05:33.050Z,97555.00
2024-04-30T17:08:00.088Z,97491.03
2024-04-30T17:10:27.194Z,97610.06
2024-04-30T17:12:55.223Z,97390.91
2024-04-30T17:15:25.884Z,97597.44
2024-04-30T17:17:52.751Z,97593.59
2024-04-30T17:20:19.581Z,97595.50
2024-04-30T17:22:48.662Z,97512.78
2024-04-30T17:25:15.912Z,97485.72
2024-04-30T17:27:45.920Z,97554.06
2024-04-30T17:30:14.574Z,97529.72
2024-04-30T17:32:43.933Z,97554.69
2024-04-30T17:35:13.717Z,97584.59
2024-04-30T17:37:47.184Z,97527.34
2024-04-30T17:40:38.416Z,97595.97
2024-04-30T17:43:09.896Z,97609.88
2024-04-30T17:45:36.830Z,97579.63
2024-04-30T17:48:07.179Z,97509.13
2024-04-30T17:50:34.736Z,97569.72
2024-04-30T17:53:01.761Z,97594.53
2024-04-30T17:55:33.094Z,97466.41
2024-04-30T17:58:00.194Z,97369.31
2024-04-30T18:00:36.300Z,97614.69
2024-04-30T18:03:03.497Z,97545.56
2024-04-30T18:05:37.250Z,97467.63
2024-04-30T18:08:10.132Z,97543.59
2024-04-30T18:10:49.460Z,97458.88
2024-04-30T18:13:27.038Z,97578.69
2024-04-30T18:15:53.945Z,97578.84
2024-04-30T18:18:25.619Z,97506.84
2024-04-30T18:20:53.253Z,97524.38
2024-04-30T18:23:22.524Z,97510.63
2024-04-30T18:25:54.596Z,97464.84
2024-04-30T18:28:29.011Z,97504.38
2024-04-30T18:30:56.165Z,97413.22
2024-04-30T18:33:29.054Z,97218.91
2024-04-30T18:36:04.892Z,97394.19
2024-04-30T18:38:39.978Z,97254.78
2024-04-30T18:41:17.600Z,97518.63
2024-04-30T18:43:51.633Z,97565.69
2024-04-30T18:46:24.677Z,97465.13
2024-04-30T18:48:54.948Z,97568.19
2024-04-30T18:51:31.052Z,97581.78
2024-04-30T18:53:57.779Z,97503.84
2024-04-30T18:56:24.691Z,97488.94
2024-04-30T18:58:51.602Z,97463.03
2024-04-30T19:01:18.824Z,97500.59
2024-04-30T19:03:48.515Z,97450.97
2024-04-30T19:06:24.252Z,97559.00
2024-04-30T19:08:52.556Z,97338.88
2024-04-30T19:11:22.627Z,97443.84
2024-04-30T19:13:49.911Z,97584.31
2024-04-30T19:16:20.541Z,97499.94
2024-04-30T19:18:48.175Z,97566.53
2024-04-30T19:21:15.323Z,97533.19
2024-04-30T19:23:43.391Z,97551.53
2024-04-30T19:26:18.106Z,97520.38
2024-04-30T19:28:47.719Z,97555.44
2024-04-30T19:31:18.773Z,97555.38
2024-04-30T19:33:46.903Z,97560.41
2024-04-30T19:36:22.001Z,97556.00
2024-04-30T19:38:49.486Z,97554.22
2024-04-30T19:41:19.501Z,97537.31
2024-04-30T19:43:46.445Z,97554.75
2024-04-30T19:46:15.144Z,97507.78
2024-04-30T19:48:42.760Z,97554.56
2024-04-30T19:51:09.815Z,97552.78
2024-04-30T19:53:36.651Z,97466.16
2024-04-30T19:56:03.497Z,97457.75
2024-04-30T19:58:30.644Z,97551.78
2024-04-30T20:00:57.439Z,97484.06
2024-04-30T20:03:26.795Z,97526.03
2024-04-30T20:05:53.807Z,97526.06
2024-04-30T20:08:20.681Z,97443.06
2024-04-30T20:10:47.524Z,97547.53
2024-04-30T20:13:14.380Z,97500.69
2024-04-30T20:15:44.767Z,97319.66
2024-04-30T20:18:12.455Z,97542.84
2024-04-30T20:20:39.319Z,97541.94
2024-04-30T20:23:06.154Z,97529.41
2024-04-30T20:25:32.908Z,97473.97
2024-04-30T20:28:00.898Z,97303.50
2024-04-30T20:30:30.524Z,97289.94
2024-04-30T20:32:57.569Z,97305.22
2024-04-30T20:35:24.477Z,97473.13
2024-04-30T20:37:51.326Z,97528.72
2024-04-30T20:40:18.417Z,97536.44
2024-04-30T20:42:45.342Z,97501.63
2024-04-30T20:45:13.271Z,97441.25
2024-04-30T20:47:43.250Z,97532.06
2024-04-30T20:50:10.242Z,97529.78
2024-04-30T20:52:37.073Z,97427.50
2024-04-30T20:55:04.187Z,97537.31
2024-04-30T20:57:31.108Z,97391.94
2024-04-30T21:00:00.693Z,97510.41
2024-04-30T21:02:30.144Z,97525.06
2024-04-30T21:04:57.070Z,97405.88
2024-04-30T21:07:24.937Z,97503.75
2024-04-30T21:09:51.891Z,97504.97
2024-04-30T21:12:18.865Z,97271.09
2024-04-30T21:14:49.104Z,97412.41
2024-04-30T21:17:15.960Z,97396.44
2024-04-30T21:19:42.923Z,97530.41
2024-04-30T21:22:10.434Z,97364.78
2024-04-30T21:24:39.471Z,97353.56
2024-04-30T21:27:06.586Z,97374.22
2024-04-30T21:29:34.587Z,97278.19
2024-04-30T21:32:06.040Z,97494.06
2024-04-30T21:34:33.139Z,97339.19
2024-04-30T21:37:01.996Z,97459.75
2024-04-30T21:39:29.089Z,97491.88
2024-04-30T21:41:59.444Z,97496.53
2024-04-30T21:44:26.397Z,97489.81
2024-04-30T21:46:53.096Z,97362.56
2024-04-30T21:49:19.963Z,97479.16
2024-04-30T21:51:49.273Z,97488.41
2024-04-30T21:54:16.089Z,97438.00
2024-04-30T21:56:42.824Z,97445.22
2024-04-30T21:59:09.677Z,97488.19
2024-04-30T22:01:36.623Z,97421.13
2024-04-30T22:04:04.978Z,97431.91
2024-04-30T22:06:32.405Z,97477.81
2024-04-30T22:08:59.446Z,97482.38
2024-04-30T22:11:26.317Z,97421.19
2024-04-30T22:13:53.279Z,97466.81
2024-04-30T22:16:20.583Z,97343.47
2024-04-30T22:18:48.865Z,97433.06
2024-04-30T22:21:19.193Z,97429.56
2024-04-30T22:23:47.295Z,97400.31
2024-04-30T22:26:16.220Z,97483.78
2024-04-30T22:28:43.864Z,97382.09
2024-04-30T22:31:10.626Z,97412.38
2024-04-30T22:33:38.041Z,97401.38
2024-04-30T22:36:05.655Z,97403.00
2024-04-30T22:38:32.670Z,97392.25
2024-04-30T22:40:59.391Z,97365.72
2024-04-30T22:43:29.260Z,97391.19
2024-04-30T22:45:57.618Z,97352.28
2024-04-30T22:48:24.666Z,97456.09
2024-04-30T22:50:51.673Z,97463.09
2024-04-30T22:53:18.676Z,97379.94
2024-04-30T22:55:45.493Z,97440.56
2024-04-30T22:58:12.234Z,97439.44
2024-04-30T23:00:39.756Z,97402.47
2024-04-30T23:03:06.557Z,97396.00
2024-04-30T23:05:33.344Z,97343.50
2024-04-30T23:08:00.121Z,97285.28
2024-04-30T23:10:27.152Z,97408.63
2024-04-30T23:12:54.216Z,97374.06
2024-04-30T23:15:21.154Z,97281.50
2024-04-30T23:17:50.134Z,97294.66
2024-04-30T23:20:18.344Z,97330.56
2024-04-30T23:22:45.464Z,97353.06
2024-04-30T23:25:12.399Z,97443.28
2024-04-30T23:27:39.353Z,97175.53
2024-04-30T23:30:07.918Z,97432.00
2024-04-30T23:32:38.586Z,97309.59
2024-04-30T23:35:05.441Z,97311.75
2024-04-30T23:37:32.540Z,97318.59
2024-04-30T23:39:59.404Z,97429.81
2024-04-30T23:42:27.573Z,97293.94
2024-04-30T23:44:54.450Z,97417.09
2024-04-30T23:47:21.242Z,97393.25
2024-04-30T23:49:48.966Z,97371.28
2024-04-30T23:52:15.752Z,97347.13
2024-04-30T23:54:43.774Z,97431.38
2024-04-30T23:57:10.798Z,97381.72
2024-04-30T23:59:37.644Z,97338.91
